Time;durP1;ratioP1;P1;durP2;ratioP2;P2;SDS_P1;SDS_P2;PMS_P1;PMS_P2;Temp;Humidity;BMP_temperature;BMP_pressure;BME280_temperature;BME280_humidity;BME280_pressure;Samples;Min_cycle;Max_cycle;Signal;HPM_P1;HPM_P2
2022/01/13 00:00:43;;;;;;;22.33;11.32;;;4.60;99.90;;;;;;5062515;28;20077;-69
2022/01/13 00:03:09;;;;;;;21.67;10.43;;;4.60;99.90;;;;;;5063860;28;20069;-69
2022/01/13 00:05:35;;;;;;;24.63;11.88;;;4.60;99.90;;;;;;5061044;28;20468;-69
2022/01/13 00:08:01;;;;;;;33.53;12.48;;;4.60;99.90;;;;;;5058076;28;20102;-69
2022/01/13 00:10:27;;;;;;;16.42;9.82;;;4.60;99.90;;;;;;5069164;28;20045;-69
2022/01/13 00:13:02;;;;;;;28.35;14.05;;;4.60;99.90;;;;;;5062644;28;20123;-69
2022/01/13 00:15:47;;;;;;;21.63;12.52;;;4.60;99.90;;;;;;5058717;28;20056;-69
2022/01/13 00:18:15;;;;;;;21.55;11.75;;;4.60;99.90;;;;;;5060180;28;20056;-69
2022/01/13 00:26:06;;;;;;;28.58;12.23;;;4.60;99.90;;;;;;5061456;28;20287;-69
2022/01/13 00:28:32;;;;;;;26.58;13.57;;;4.60;99.90;;;;;;5065233;28;20033;-69
2022/01/13 00:30:59;;;;;;;21.67;12.38;;;4.60;99.90;;;;;;5060059;28;20483;-69
2022/01/13 00:33:26;;;;;;;22.40;13.57;;;4.70;99.90;;;;;;5057877;28;20124;-69
2022/01/13 00:36:00;;;;;;;22.75;12.68;;;4.70;99.90;;;;;;5060123;28;20629;-69
2022/01/13 00:38:27;;;;;;;21.83;14.73;;;4.70;99.90;;;;;;5058821;28;20041;-69
2022/01/13 00:40:54;;;;;;;25.17;14.35;;;4.70;99.90;;;;;;5059048;28;20067;-69
2022/01/13 00:43:20;;;;;;;31.77;15.23;;;4.70;99.90;;;;;;5056844;28;20044;-69
2022/01/13 00:45:48;;;;;;;24.73;15.15;;;4.70;99.90;;;;;;5055553;28;20125;-69
2022/01/13 00:48:14;;;;;;;23.40;13.50;;;4.70;99.90;;;;;;5060678;28;20505;-69
2022/01/13 00:50:40;;;;;;;25.45;13.43;;;4.80;99.90;;;;;;5065511;28;20055;-69
2022/01/13 00:53:06;;;;;;;30.92;16.38;;;4.80;99.90;;;;;;5058336;28;20040;-69
2022/01/13 00:55:45;;;;;;;23.50;15.40;;;4.80;99.90;;;;;;5055835;28;20025;-69
2022/01/13 00:58:11;;;;;;;26.83;16.60;;;4.80;99.90;;;;;;5054605;28;20118;-69
2022/01/13 01:00:37;;;;;;;35.85;16.90;;;4.80;99.90;;;;;;5052808;28;20076;-69
2022/01/13 01:03:03;;;;;;;29.27;16.35;;;4.80;99.90;;;;;;5062904;28;20083;-69
2022/01/13 01:05:32;;;;;;;26.95;15.30;;;4.80;99.90;;;;;;5055605;28;20114;-69
2022/01/13 01:07:58;;;;;;;23.73;13.57;;;4.80;99.90;;;;;;5058355;28;20541;-69
2022/01/13 01:10:24;;;;;;;31.00;15.40;;;4.80;99.90;;;;;;5058590;28;20116;-69
2022/01/13 01:12:49;;;;;;;25.67;14.50;;;4.80;99.90;;;;;;5059949;28;20498;-69
2022/01/13 01:15:15;;;;;;;28.58;16.77;;;4.80;99.90;;;;;;5014228;28;1143909;-69
2022/01/13 01:17:47;;;;;;;24.98;15.32;;;4.80;99.90;;;;;;5064076;28;20044;-69
2022/01/13 01:20:14;;;;;;;23.52;14.00;;;4.80;99.90;;;;;;5060321;28;20041;-69
2022/01/13 01:22:57;;;;;;;33.40;16.10;;;4.80;99.90;;;;;;5059568;28;20162;-69
2022/01/13 01:25:42;;;;;;;31.92;16.27;;;4.80;99.90;;;;;;5071453;28;20032;-69
2022/01/13 01:28:14;;;;;;;27.05;16.05;;;4.80;99.90;;;;;;5061007;28;20391;-69
2022/01/13 01:30:43;;;;;;;32.92;17.25;;;4.80;99.90;;;;;;5058594;28;20036;-69
2022/01/13 01:33:16;;;;;;;24.90;16.65;;;4.80;99.90;;;;;;5053565;28;20040;-69
2022/01/13 01:35:42;;;;;;;29.23;16.08;;;4.80;99.90;;;;;;5060646;28;20110;-69
2022/01/13 01:38:09;;;;;;;26.92;14.45;;;4.80;99.90;;;;;;5056960;28;20125;-69
2022/01/13 01:40:35;;;;;;;21.25;11.95;;;4.80;99.90;;;;;;5070925;28;20084;-70
2022/01/13 01:43:01;;;;;;;25.38;17.88;;;4.80;99.90;;;;;;5058760;28;20522;-69
2022/01/13 01:45:32;;;;;;;24.60;13.07;;;4.80;99.90;;;;;;5055179;28;20517;-69
2022/01/13 01:48:02;;;;;;;26.20;15.10;;;4.80;99.90;;;;;;5062939;28;20600;-69
2022/01/13 01:50:34;;;;;;;28.05;15.32;;;4.90;99.90;;;;;;5059679;28;20036;-69
2022/01/13 01:53:00;;;;;;;25.33;14.90;;;4.80;99.90;;;;;;5063239;28;20029;-69
2022/01/13 01:55:26;;;;;;;28.80;14.60;;;4.90;99.90;;;;;;5065975;28;20438;-69
2022/01/13 01:57:52;;;;;;;27.33;15.38;;;4.90;99.90;;;;;;5060458;28;20319;-69
2022/01/13 02:00:21;;;;;;;29.00;16.52;;;4.80;99.90;;;;;;5059113;28;20074;-69
2022/01/13 02:02:47;;;;;;;35.08;17.85;;;4.90;99.90;;;;;;5062809;28;20039;-68
2022/01/13 02:05:13;;;;;;;33.88;17.83;;;4.90;99.90;;;;;;5061044;28;20128;-68
2022/01/13 02:07:39;;;;;;;27.85;14.75;;;4.80;99.90;;;;;;5059693;28;20124;-68
2022/01/13 02:10:07;;;;;;;31.05;15.70;;;4.90;99.90;;;;;;5053990;28;20041;-68
2022/01/13 02:12:36;;;;;;;34.78;18.20;;;4.80;99.90;;;;;;5054622;28;20041;-69
2022/01/13 02:17:34;;;;;;;39.17;16.77;;;4.80;99.90;;;;;;5059120;28;20056;-68
2022/01/13 02:20:03;;;;;;;36.78;17.08;;;4.80;99.90;;;;;;5054685;28;20029;-69
2022/01/13 02:22:29;;;;;;;60.92;18.95;;;4.80;99.90;;;;;;5064191;28;20040;-69
2022/01/13 02:24:55;;;;;;;52.05;16.55;;;4.80;99.90;;;;;;5064051;28;20040;-68
2022/01/13 02:27:21;;;;;;;38.97;14.10;;;4.80;99.90;;;;;;5058718;28;20632;-69
2022/01/13 02:29:48;;;;;;;25.27;11.68;;;4.80;99.90;;;;;;5064778;28;20028;-68
2022/01/13 02:32:14;;;;;;;43.25;14.52;;;4.80;99.90;;;;;;5062703;28;20115;-68
2022/01/13 02:34:40;;;;;;;39.10;13.23;;;4.70;99.90;;;;;;5053806;28;20079;-68
2022/01/13 02:37:07;;;;;;;66.75;15.05;;;4.70;99.90;;;;;;5065013;28;20032;-68
2022/01/13 02:39:33;;;;;;;49.17;13.90;;;4.70;99.90;;;;;;5056422;28;20139;-68
2022/01/13 02:42:01;;;;;;;33.42;11.38;;;4.60;99.90;;;;;;5057063;28;20037;-68
2022/01/13 02:44:30;;;;;;;61.70;14.57;;;4.60;99.90;;;;;;5058947;28;20704;-68
2022/01/13 02:47:20;;;;;;;41.95;11.73;;;4.60;99.90;;;;;;5055749;28;20049;-68
2022/01/13 02:49:46;;;;;;;24.33;11.45;;;4.60;99.90;;;;;;5058047;28;20119;-68
2022/01/13 02:52:12;;;;;;;100.20;18.77;;;4.60;99.90;;;;;;5061515;28;20119;-68
2022/01/13 02:54:38;;;;;;;58.40;14.35;;;4.60;99.90;;;;;;5059276;28;20128;-68
2022/01/13 02:57:03;;;;;;;37.22;12.30;;;4.60;99.90;;;;;;5052269;28;20143;-68
2022/01/13 02:59:29;;;;;;;41.72;12.77;;;4.50;99.90;;;;;;5056625;28;20037;-69
2022/01/13 03:01:55;;;;;;;41.15;12.10;;;4.60;99.90;;;;;;5054424;28;20040;-68
2022/01/13 03:04:23;;;;;;;77.70;16.25;;;4.50;99.90;;;;;;5057502;28;20406;-68
2022/01/13 03:06:49;;;;;;;43.10;12.35;;;4.50;99.90;;;;;;5057328;28;20081;-68
2022/01/13 03:09:15;;;;;;;45.03;13.02;;;4.50;99.90;;;;;;5060639;28;20068;-68
2022/01/13 03:11:43;;;;;;;49.25;15.10;;;4.50;99.90;;;;;;5064626;28;20041;-69
2022/01/13 03:14:10;;;;;;;80.00;16.05;;;4.50;99.90;;;;;;5051395;28;20091;-68
2022/01/13 03:16:37;;;;;;;69.65;17.60;;;4.50;99.90;;;;;;5058078;28;20412;-68
2022/01/13 03:19:03;;;;;;;27.65;12.88;;;4.60;99.90;;;;;;5052101;28;20057;-68
2022/01/13 03:21:29;;;;;;;39.58;14.20;;;4.60;99.90;;;;;;5060992;28;20433;-68
2022/01/13 03:23:55;;;;;;;94.20;19.50;;;4.60;99.90;;;;;;5059931;28;20037;-68
2022/01/13 03:26:22;;;;;;;92.25;22.10;;;4.60;99.90;;;;;;5060973;28;20032;-68
2022/01/13 03:28:55;;;;;;;36.25;14.93;;;4.60;99.90;;;;;;5062323;28;20041;-69
2022/01/13 03:31:22;;;;;;;139.93;24.83;;;4.60;99.90;;;;;;5053972;28;20091;-69
2022/01/13 03:33:50;;;;;;;79.97;18.63;;;4.60;99.90;;;;;;5053831;28;20029;-68
2022/01/13 03:36:18;;;;;;;36.63;14.05;;;4.60;99.90;;;;;;5063961;28;20044;-68
2022/01/13 03:38:44;;;;;;;90.15;20.73;;;4.60;99.90;;;;;;5056346;28;20069;-68
2022/01/13 03:41:10;;;;;;;73.93;18.08;;;4.60;99.90;;;;;;5055790;28;20048;-68
2022/01/13 03:43:37;;;;;;;74.72;17.67;;;4.70;99.90;;;;;;5058407;28;20037;-69
2022/01/13 03:46:06;;;;;;;60.08;15.93;;;4.70;99.90;;;;;;5057329;28;20495;-69
2022/01/13 03:48:33;;;;;;;54.03;15.15;;;4.70;99.90;;;;;;5058669;28;20039;-68
2022/01/13 03:50:58;;;;;;;86.70;21.63;;;4.70;99.90;;;;;;5060163;28;20060;-68
2022/01/13 03:53:27;;;;;;;61.15;18.10;;;4.70;99.90;;;;;;5057588;28;20417;-69
2022/01/13 03:56:31;;;;;;;72.88;16.63;;;4.70;99.90;;;;;;5065802;28;20033;-69
2022/01/13 03:59:24;;;;;;;117.72;24.00;;;4.70;99.90;;;;;;5064553;28;20032;-68
2022/01/13 04:02:06;;;;;;;44.20;16.15;;;4.70;99.90;;;;;;5065144;28;20044;-68
2022/01/13 04:04:44;;;;;;;111.93;22.65;;;4.70;99.90;;;;;;5067070;28;20508;-68
2022/01/13 04:07:12;;;;;;;91.88;18.02;;;4.70;99.90;;;;;;5060847;28;20086;-68
2022/01/13 04:09:40;;;;;;;85.88;19.45;;;4.70;99.90;;;;;;5062651;28;20471;-68
2022/01/13 04:12:10;;;;;;;71.72;20.60;;;4.70;99.90;;;;;;5059616;28;20093;-68
2022/01/13 04:14:50;;;;;;;53.03;18.05;;;4.70;99.90;;;;;;5064773;28;20036;-68
2022/01/13 04:17:18;;;;;;;90.47;23.15;;;4.70;99.90;;;;;;5059967;28;20048;-69
2022/01/13 04:19:46;;;;;;;61.47;19.23;;;4.70;99.90;;;;;;5064967;28;20082;-68
2022/01/13 04:22:14;;;;;;;60.53;18.17;;;4.80;99.90;;;;;;5055513;28;20468;-68
2022/01/13 04:24:45;;;;;;;40.05;18.38;;;4.80;99.90;;;;;;5064863;28;20036;-68
2022/01/13 04:27:21;;;;;;;43.97;16.88;;;4.80;99.90;;;;;;5062274;28;20047;-68
2022/01/13 04:29:49;;;;;;;47.72;19.98;;;4.80;99.90;;;;;;5054107;28;20044;-68
2022/01/13 04:32:14;;;;;;;60.45;22.15;;;4.80;99.90;;;;;;5058864;28;20041;-68
2022/01/13 04:34:40;;;;;;;99.53;27.33;;;4.80;99.90;;;;;;5054665;28;20477;-68
2022/01/13 04:37:06;;;;;;;54.03;20.35;;;4.80;99.90;;;;;;5065189;28;20044;-69
2022/01/13 04:39:32;;;;;;;46.58;18.83;;;4.90;99.90;;;;;;5065014;28;20064;-69
2022/01/13 04:41:58;;;;;;;53.40;20.98;;;4.90;99.90;;;;;;5059861;28;20084;-68
2022/01/13 04:44:26;;;;;;;59.22;19.63;;;4.90;99.90;;;;;;5057117;28;20398;-69
2022/01/13 04:46:54;;;;;;;51.67;22.00;;;4.90;99.90;;;;;;5060496;28;20041;-70
2022/01/13 04:49:21;;;;;;;106.95;28.42;;;4.90;99.90;;;;;;5060379;28;20041;-68
2022/01/13 04:51:49;;;;;;;32.90;15.73;;;4.90;99.90;;;;;;5070448;28;20574;-68
2022/01/13 04:54:16;;;;;;;48.45;20.45;;;4.90;99.90;;;;;;5060489;28;20405;-68
2022/01/13 04:59:09;;;;;;;31.50;17.58;;;5.00;99.90;;;;;;5062722;28;20072;-68
2022/01/13 05:01:35;;;;;;;55.03;20.45;;;5.00;99.90;;;;;;5057573;28;20128;-70
2022/01/13 05:04:04;;;;;;;34.70;16.60;;;5.00;99.90;;;;;;5065681;28;20486;-69
2022/01/13 05:06:30;;;;;;;38.05;19.42;;;5.00;99.90;;;;;;5063569;28;20123;-69
2022/01/13 05:08:55;;;;;;;43.47;20.17;;;5.00;99.90;;;;;;5062221;28;20119;-69
2022/01/13 05:11:22;;;;;;;50.63;25.75;;;5.00;99.90;;;;;;5058923;28;20478;-68
2022/01/13 05:13:47;;;;;;;45.63;23.27;;;5.10;99.90;;;;;;5059875;28;20083;-68
2022/01/13 05:16:48;;;;;;;56.10;27.58;;;5.10;99.90;;;;;;5055500;28;20196;-68
2022/01/13 05:24:09;;;;;;;38.92;21.83;;;5.20;99.90;;;;;;5060452;28;20056;-69
2022/01/13 05:26:35;;;;;;;42.03;23.40;;;5.20;99.90;;;;;;5063882;28;20048;-68
2022/01/13 05:29:02;;;;;;;60.35;30.52;;;5.20;99.90;;;;;;5065351;28;20079;-68
2022/01/13 05:31:28;;;;;;;51.78;26.23;;;5.30;99.90;;;;;;5059764;28;20037;-69
2022/01/13 05:33:53;;;;;;;40.60;21.98;;;5.30;99.90;;;;;;5065963;28;20050;-68
2022/01/13 05:36:19;;;;;;;48.47;24.17;;;5.30;99.90;;;;;;5062007;28;20375;-69
2022/01/13 05:38:45;;;;;;;44.10;22.45;;;5.30;99.90;;;;;;5061448;28;20063;-69
2022/01/13 05:41:11;;;;;;;48.35;25.02;;;5.30;99.90;;;;;;5058909;28;20128;-68
2022/01/13 05:43:37;;;;;;;46.80;25.98;;;5.40;99.90;;;;;;5061558;28;20116;-68
2022/01/13 05:46:04;;;;;;;38.08;22.20;;;5.40;99.90;;;;;;5056086;28;20025;-68
2022/01/13 05:48:31;;;;;;;43.00;22.58;;;5.40;99.90;;;;;;5065356;28;20133;-68
2022/01/13 05:50:57;;;;;;;47.05;24.92;;;5.40;99.90;;;;;;5060011;28;20025;-69
2022/01/13 05:53:23;;;;;;;42.10;24.08;;;5.40;99.90;;;;;;5060234;28;20456;-68
2022/01/13 05:55:49;;;;;;;38.83;23.80;;;5.50;99.90;;;;;;5062668;28;20074;-69
2022/01/13 05:58:15;;;;;;;50.83;29.88;;;5.50;99.90;;;;;;5055326;28;20040;-68
2022/01/13 06:00:41;;;;;;;41.53;25.48;;;5.50;99.90;;;;;;5058713;28;20032;-68
2022/01/13 06:03:07;;;;;;;39.58;20.50;;;5.50;99.90;;;;;;5061035;28;20090;-68
2022/01/13 06:05:33;;;;;;;47.42;24.25;;;5.50;99.90;;;;;;5060540;28;20094;-68
2022/01/13 06:07:59;;;;;;;48.45;23.98;;;5.60;99.90;;;;;;5060702;28;20032;-68
2022/01/13 06:10:25;;;;;;;42.97;23.20;;;5.60;99.90;;;;;;5054913;28;20039;-68
2022/01/13 06:12:52;;;;;;;49.95;27.67;;;5.60;99.90;;;;;;5058777;28;20462;-68
2022/01/13 06:15:23;;;;;;;44.60;23.13;;;5.60;99.90;;;;;;5056782;28;20572;-68
2022/01/13 06:17:51;;;;;;;59.35;28.27;;;5.70;99.90;;;;;;5054243;28;20082;-68
2022/01/13 06:20:18;;;;;;;53.15;22.67;;;5.70;99.90;;;;;;5061148;28;20590;-68
2022/01/13 06:22:45;;;;;;;41.45;23.13;;;5.70;99.90;;;;;;5063144;28;20075;-68
2022/01/13 06:25:12;;;;;;;37.47;21.63;;;5.70;99.90;;;;;;5058069;28;20040;-68
2022/01/13 06:27:39;;;;;;;35.83;22.67;;;5.70;99.90;;;;;;5064678;28;20100;-68
2022/01/13 06:30:08;;;;;;;44.65;25.42;;;5.70;99.90;;;;;;5057616;28;20048;-68
2022/01/13 06:32:34;;;;;;;43.25;22.33;;;5.80;99.90;;;;;;5053328;28;20508;-68
2022/01/13 06:35:00;;;;;;;44.50;22.92;;;5.80;99.90;;;;;;5061912;28;20032;-70
2022/01/13 06:37:26;;;;;;;40.97;22.73;;;5.80;99.90;;;;;;5058454;28;20150;-69
2022/01/13 06:39:52;;;;;;;59.78;28.77;;;5.80;99.90;;;;;;5062529;28;20032;-69
2022/01/13 06:42:18;;;;;;;49.95;24.67;;;5.80;99.90;;;;;;5064966;28;20450;-68
2022/01/13 06:44:44;;;;;;;54.10;26.70;;;5.80;99.90;;;;;;5057761;28;20506;-68
2022/01/13 06:47:10;;;;;;;42.85;25.08;;;5.90;99.90;;;;;;5062960;28;20062;-69
2022/01/13 06:49:36;;;;;;;50.63;28.27;;;5.90;99.90;;;;;;5060521;28;20132;-69
2022/01/13 06:52:04;;;;;;;49.97;26.77;;;5.90;99.90;;;;;;5062544;28;20382;-68
2022/01/13 06:54:30;;;;;;;43.30;25.33;;;5.90;99.90;;;;;;5059871;28;20127;-68
2022/01/13 06:56:56;;;;;;;46.25;25.38;;;5.90;99.90;;;;;;5067069;28;20124;-69
2022/01/13 06:59:21;;;;;;;50.90;24.63;;;5.90;99.90;;;;;;5057261;28;20127;-68
2022/01/13 07:01:48;;;;;;;45.47;26.15;;;6.00;99.90;;;;;;5055984;28;20506;-69
2022/01/13 07:04:15;;;;;;;45.53;24.50;;;6.00;99.90;;;;;;5063545;28;20072;-68
2022/01/13 07:06:43;;;;;;;44.83;25.40;;;6.00;99.90;;;;;;5061239;28;20063;-68
2022/01/13 07:09:14;;;;;;;46.90;26.38;;;6.00;99.90;;;;;;5069322;28;20040;-69
2022/01/13 07:11:40;;;;;;;45.08;24.88;;;6.10;99.90;;;;;;5055728;28;20048;-69
2022/01/13 07:14:07;;;;;;;49.30;25.70;;;6.10;99.90;;;;;;5055480;28;20537;-68
2022/01/13 07:16:34;;;;;;;45.50;26.40;;;6.10;99.90;;;;;;5053013;28;20264;-68
2022/01/13 07:18:59;;;;;;;49.22;28.10;;;6.10;99.90;;;;;;5079846;28;20056;-69
2022/01/13 07:21:27;;;;;;;45.30;25.20;;;6.10;99.90;;;;;;5055988;28;20037;-68
2022/01/13 07:23:55;;;;;;;47.20;25.40;;;6.10;99.90;;;;;;5061565;28;20502;-69
2022/01/13 07:26:20;;;;;;;44.17;27.92;;;6.20;99.90;;;;;;5063177;28;20486;-69
2022/01/13 07:28:47;;;;;;;50.67;30.08;;;6.20;99.90;;;;;;5061334;28;20048;-70
2022/01/13 07:31:14;;;;;;;41.42;25.30;;;6.20;99.90;;;;;;5072034;28;20029;-68
2022/01/13 07:33:44;;;;;;;58.55;28.65;;;6.20;99.90;;;;;;5062654;28;20045;-68
2022/01/13 07:36:10;;;;;;;41.45;24.80;;;6.20;99.90;;;;;;5065930;28;20137;-69
2022/01/13 07:38:36;;;;;;;56.65;25.75;;;6.20;99.90;;;;;;5065464;28;20036;-68
2022/01/13 07:41:03;;;;;;;57.85;29.92;;;6.20;99.90;;;;;;5066910;28;20036;-68
2022/01/13 07:43:29;;;;;;;53.70;28.15;;;6.20;99.90;;;;;;5063636;28;20051;-68
2022/01/13 07:45:54;;;;;;;60.72;30.63;;;6.20;99.90;;;;;;5066254;28;20044;-68
2022/01/13 07:48:21;;;;;;;42.97;25.38;;;6.20;99.90;;;;;;5064326;28;20487;-69
2022/01/13 07:50:48;;;;;;;49.72;25.77;;;6.20;99.90;;;;;;5062525;28;20032;-68
2022/01/13 07:53:14;;;;;;;43.42;25.23;;;6.30;99.90;;;;;;5069377;28;20090;-68
2022/01/13 07:55:41;;;;;;;50.40;28.33;;;6.30;99.90;;;;;;5061004;28;20040;-70
2022/01/13 07:58:06;;;;;;;50.70;27.05;;;6.30;99.90;;;;;;5063113;28;20040;-68
2022/01/13 08:00:32;;;;;;;52.58;28.27;;;6.30;99.90;;;;;;5063335;28;20540;-68
2022/01/13 08:02:58;;;;;;;54.80;29.45;;;6.30;99.90;;;;;;5060348;28;20228;-68
2022/01/13 08:05:24;;;;;;;51.38;25.02;;;6.30;99.90;;;;;;5063164;28;20101;-68
2022/01/13 08:07:50;;;;;;;50.70;27.35;;;6.30;99.90;;;;;;5059786;28;20052;-68
2022/01/13 08:10:16;;;;;;;55.17;30.10;;;6.30;99.90;;;;;;5059380;28;20120;-68
2022/01/13 08:12:41;;;;;;;60.42;29.95;;;6.30;99.90;;;;;;5068559;28;20130;-68
2022/01/13 08:15:12;;;;;;;53.35;29.45;;;6.30;99.90;;;;;;5062693;28;20044;-68
2022/01/13 08:20:24;;;;;;;52.78;26.27;;;6.30;99.90;;;;;;5066172;28;20167;-68
2022/01/13 08:22:50;;;;;;;39.92;26.85;;;6.30;99.90;;;;;;5062249;28;20150;-68
2022/01/13 08:25:17;;;;;;;47.70;24.98;;;6.30;99.90;;;;;;5063352;28;20033;-68
2022/01/13 08:27:43;;;;;;;48.60;26.52;;;6.30;99.90;;;;;;5068791;28;20036;-68
2022/01/13 08:30:10;;;;;;;40.15;24.30;;;6.30;99.90;;;;;;5058091;28;20517;-69
2022/01/13 08:32:36;;;;;;;57.95;27.48;;;6.30;99.90;;;;;;5063295;28;20036;-68
2022/01/13 08:35:04;;;;;;;56.70;25.67;;;6.30;99.90;;;;;;5057220;28;20115;-68
2022/01/13 08:37:32;;;;;;;50.45;25.65;;;6.40;99.90;;;;;;5061332;28;20502;-68
2022/01/13 08:40:03;;;;;;;51.65;28.50;;;6.40;99.90;;;;;;5058070;28;20028;-68
2022/01/13 08:42:31;;;;;;;47.22;24.10;;;6.40;99.90;;;;;;5060417;28;20059;-68
2022/01/13 08:44:57;;;;;;;49.28;28.92;;;6.40;99.90;;;;;;5058700;28;20544;-68
2022/01/13 08:47:23;;;;;;;60.20;28.77;;;6.40;99.90;;;;;;5056549;28;20047;-69
2022/01/13 08:49:49;;;;;;;53.72;27.15;;;6.40;99.90;;;;;;5063095;28;20558;-68
2022/01/13 08:52:14;;;;;;;54.45;28.70;;;6.40;99.90;;;;;;5063180;28;20116;-68
2022/01/13 08:54:45;;;;;;;53.10;27.65;;;6.40;99.90;;;;;;5068626;28;20413;-68
2022/01/13 08:57:11;;;;;;;48.17;26.15;;;6.40;99.90;;;;;;5065691;28;20074;-68
2022/01/13 08:59:37;;;;;;;53.20;27.67;;;6.40;99.90;;;;;;5057343;28;20036;-68
2022/01/13 09:02:03;;;;;;;45.65;25.65;;;6.40;99.90;;;;;;5062381;28;20037;-68
2022/01/13 09:04:29;;;;;;;41.78;24.23;;;6.40;99.90;;;;;;5063792;28;20452;-69
2022/01/13 09:06:55;;;;;;;53.30;30.30;;;6.40;99.90;;;;;;5058822;28;20045;-68
2022/01/13 09:09:21;;;;;;;45.88;27.30;;;6.40;99.90;;;;;;5071613;28;20041;-68
2022/01/13 09:11:47;;;;;;;50.97;28.52;;;6.40;99.90;;;;;;5059809;28;20094;-69
2022/01/13 09:14:15;;;;;;;48.70;27.60;;;6.40;99.90;;;;;;5061154;28;20477;-69
2022/01/13 09:16:43;;;;;;;51.05;26.80;;;6.40;99.90;;;;;;5063886;28;20510;-68
2022/01/13 09:19:14;;;;;;;54.58;29.70;;;6.40;99.90;;;;;;5064809;28;20477;-68
2022/01/13 09:21:43;;;;;;;42.38;25.15;;;6.50;99.90;;;;;;5059175;28;20108;-68
2022/01/13 09:24:11;;;;;;;47.70;27.05;;;6.50;99.90;;;;;;5065900;28;20402;-69
2022/01/13 09:26:38;;;;;;;56.75;28.00;;;6.50;99.90;;;;;;5066471;28;20473;-69
2022/01/13 09:29:08;;;;;;;60.33;27.08;;;6.50;99.90;;;;;;5062671;28;20080;-69
2022/01/13 09:31:38;;;;;;;44.80;25.35;;;6.50;99.90;;;;;;5061987;28;20528;-68
2022/01/13 09:34:05;;;;;;;46.83;26.35;;;6.50;99.90;;;;;;5056781;28;20110;-69
2022/01/13 09:36:32;;;;;;;53.45;29.42;;;6.50;99.90;;;;;;5058971;28;20029;-68
2022/01/13 09:38:59;;;;;;;53.53;27.75;;;6.50;99.90;;;;;;5051432;28;20045;-68
2022/01/13 09:41:30;;;;;;;49.83;27.63;;;6.60;99.90;;;;;;5057241;28;20036;-68
2022/01/13 09:43:58;;;;;;;40.10;21.83;;;6.60;99.90;;;;;;5074256;28;20045;-69
2022/01/13 09:46:26;;;;;;;48.15;23.77;;;6.60;99.90;;;;;;5060361;28;20670;-68
2022/01/13 09:48:54;;;;;;;42.40;25.90;;;6.60;99.90;;;;;;5050671;28;20331;-68
2022/01/13 09:51:26;;;;;;;52.05;29.48;;;6.60;99.90;;;;;;5057833;28;20106;-68
2022/01/13 09:53:52;;;;;;;48.58;26.27;;;6.60;99.90;;;;;;5045206;28;20040;-68
2022/01/13 09:56:19;;;;;;;43.03;26.48;;;6.70;99.90;;;;;;5058197;28;20040;-69
2022/01/13 09:58:44;;;;;;;46.83;26.48;;;6.70;99.90;;;;;;5060932;28;20095;-68
2022/01/13 10:01:11;;;;;;;57.00;28.88;;;6.70;99.90;;;;;;5059427;28;20458;-68
2022/01/13 10:03:38;;;;;;;47.10;27.80;;;6.70;99.90;;;;;;5054993;28;20040;-68
2022/01/13 10:06:17;;;;;;;54.65;31.05;;;6.70;99.90;;;;;;5058462;28;20107;-68
2022/01/13 10:08:56;;;;;;;43.80;27.88;;;6.70;99.90;;;;;;5068572;28;20537;-68
2022/01/13 10:11:41;;;;;;;48.00;28.50;;;6.80;99.90;;;;;;5061656;28;20036;-68
2022/01/13 10:16:52;;;;;;;52.50;27.35;;;6.80;99.90;;;;;;5060090;28;20183;-68
2022/01/13 10:19:26;;;;;;;50.53;26.88;;;6.80;99.90;;;;;;5063234;28;20130;-69
2022/01/13 10:21:57;;;;;;;49.67;27.80;;;6.80;99.90;;;;;;5063106;28;20425;-69
2022/01/13 10:24:26;;;;;;;42.22;26.92;;;6.90;99.90;;;;;;5063899;28;20040;-68
2022/01/13 10:27:05;;;;;;;53.60;29.23;;;6.90;99.90;;;;;;5061118;28;20037;-68
2022/01/13 10:29:40;;;;;;;50.28;27.27;;;6.90;99.90;;;;;;5064807;28;20624;-69
2022/01/13 10:32:07;;;;;;;46.22;26.77;;;6.90;99.90;;;;;;5057583;28;20517;-69
2022/01/13 10:34:36;;;;;;;43.13;27.13;;;6.90;99.90;;;;;;5060182;28;20048;-68
2022/01/13 10:37:02;;;;;;;41.17;26.05;;;6.90;99.90;;;;;;5053182;28;20089;-68
2022/01/13 10:39:52;;;;;;;46.70;25.98;;;6.90;99.90;;;;;;5063801;28;20132;-68
2022/01/13 10:45:20;;;;;;;49.35;27.02;;;6.90;99.90;;;;;;5059842;28;20487;-68
2022/01/13 10:48:13;;;;;;;41.92;26.40;;;6.90;99.90;;;;;;5061976;28;20054;-68
2022/01/13 10:50:54;;;;;;;49.55;26.33;;;7.00;99.90;;;;;;5065333;28;20479;-68
2022/01/13 10:53:29;;;;;;;49.40;26.92;;;7.00;99.90;;;;;;5062370;28;20532;-69
2022/01/13 10:56:09;;;;;;;44.65;25.10;;;6.90;99.90;;;;;;5056400;28;20040;-68
2022/01/13 10:58:41;;;;;;;50.13;27.40;;;6.90;99.90;;;;;;5058258;28;20087;-68
2022/01/13 11:01:12;;;;;;;41.63;26.25;;;6.90;99.90;;;;;;5059014;28;20538;-69
2022/01/13 11:03:42;;;;;;;48.33;28.90;;;6.90;99.90;;;;;;5061272;28;20047;-68
2022/01/13 11:06:10;;;;;;;41.03;25.65;;;7.00;99.90;;;;;;5064683;28;20041;-69
2022/01/13 11:08:47;;;;;;;45.55;26.95;;;6.90;99.90;;;;;;5069593;28;20110;-68
2022/01/13 11:11:29;;;;;;;43.92;26.95;;;7.00;99.90;;;;;;5060762;28;20045;-68
2022/01/13 11:14:09;;;;;;;40.17;25.02;;;6.90;99.90;;;;;;5061835;28;20037;-68
2022/01/13 11:16:37;;;;;;;39.42;25.17;;;6.90;99.90;;;;;;5063034;28;20045;-68
2022/01/13 11:19:05;;;;;;;42.63;24.15;;;7.00;99.90;;;;;;5060191;28;20382;-69
2022/01/13 11:21:31;;;;;;;41.13;25.48;;;7.00;99.90;;;;;;5064999;28;20501;-69
2022/01/13 11:24:00;;;;;;;43.83;24.15;;;7.00;99.90;;;;;;5059883;28;20489;-69
2022/01/13 11:26:30;;;;;;;44.47;23.92;;;7.00;99.90;;;;;;5064741;28;20032;-69
2022/01/13 11:28:58;;;;;;;44.55;22.65;;;7.00;99.90;;;;;;5063094;28;20037;-68
2022/01/13 11:31:24;;;;;;;44.08;24.38;;;7.00;99.90;;;;;;5055742;28;20045;-68
2022/01/13 11:33:50;;;;;;;37.92;22.23;;;7.00;99.90;;;;;;5062160;28;20048;-69
2022/01/13 11:36:17;;;;;;;43.72;22.05;;;7.00;99.90;;;;;;5056901;28;20036;-68
2022/01/13 11:38:58;;;;;;;41.67;23.48;;;7.00;99.90;;;;;;5065979;28;20402;-68
2022/01/13 11:41:24;;;;;;;43.05;23.98;;;7.00;99.90;;;;;;5066329;28;20044;-69
2022/01/13 11:43:50;;;;;;;51.95;27.05;;;7.00;99.90;;;;;;5062441;28;20422;-69
2022/01/13 11:46:21;;;;;;;42.92;24.42;;;7.00;99.90;;;;;;5061247;28;20036;-69
2022/01/13 11:48:54;;;;;;;46.83;26.48;;;7.00;99.90;;;;;;5059519;28;20051;-68
2022/01/13 11:51:21;;;;;;;41.75;22.65;;;7.00;99.90;;;;;;5067923;28;20082;-68
2022/01/13 11:53:59;;;;;;;41.53;24.25;;;7.00;99.90;;;;;;5062127;28;20500;-69
2022/01/13 11:56:26;;;;;;;43.25;23.75;;;7.00;99.90;;;;;;5058545;28;20033;-68
2022/01/13 11:58:53;;;;;;;43.40;24.30;;;7.00;99.90;;;;;;5066975;28;20421;-69
2022/01/13 12:01:22;;;;;;;37.45;23.80;;;7.10;99.90;;;;;;5058483;28;20048;-69
2022/01/13 12:03:50;;;;;;;40.55;23.13;;;7.10;99.90;;;;;;5060853;28;20036;-68
2022/01/13 12:06:39;;;;;;;46.13;23.95;;;7.20;99.90;;;;;;5055191;28;20047;-69
2022/01/13 12:09:08;;;;;;;41.35;25.63;;;7.20;99.90;;;;;;5059633;28;20045;-68
2022/01/13 12:11:38;;;;;;;43.47;24.08;;;7.20;99.90;;;;;;5060755;28;20059;-68
2022/01/13 12:14:22;;;;;;;35.38;20.25;;;7.30;99.90;;;;;;5065020;28;20173;-68
2022/01/13 12:16:55;;;;;;;43.08;21.42;;;7.30;99.90;;;;;;5061627;28;20506;-68
2022/01/13 12:19:49;;;;;;;38.40;21.48;;;7.40;99.90;;;;;;5064157;28;20440;-69
2022/01/13 12:22:26;;;;;;;34.25;21.70;;;7.50;99.90;;;;;;5065759;28;20553;-68
2022/01/13 12:24:58;;;;;;;41.90;20.58;;;7.60;99.90;;;;;;5065655;28;20143;-68
2022/01/13 12:27:46;;;;;;;37.53;22.63;;;7.80;99.90;;;;;;5063679;28;20046;-68
2022/01/13 12:30:20;;;;;;;36.00;19.55;;;7.80;99.90;;;;;;5064115;28;20110;-69
2022/01/13 12:32:52;;;;;;;36.95;19.92;;;7.80;99.90;;;;;;5055325;28;20530;-69
2022/01/13 12:35:43;;;;;;;30.65;17.88;;;7.80;99.90;;;;;;5059306;28;20445;-68
2022/01/13 12:38:22;;;;;;;30.85;19.73;;;7.80;99.90;;;;;;5062020;28;20036;-68
2022/01/13 12:41:03;;;;;;;31.20;18.35;;;7.80;99.90;;;;;;5061348;28;20550;-70
2022/01/13 12:46:00;;;;;;;28.83;17.80;;;7.80;99.90;;;;;;5066045;28;20371;-69
2022/01/13 12:48:29;;;;;;;32.17;20.20;;;7.80;99.90;;;;;;5063588;28;20090;-69
2022/01/13 12:50:56;;;;;;;32.33;17.77;;;7.80;99.90;;;;;;5062916;28;20111;-68
2022/01/13 12:53:25;;;;;;;36.03;20.30;;;7.80;99.90;;;;;;5066677;28;20033;-68
2022/01/13 12:56:04;;;;;;;35.80;18.85;;;7.70;99.90;;;;;;5066915;28;20082;-69
2022/01/13 12:58:39;;;;;;;37.58;19.52;;;7.70;99.90;;;;;;5052923;28;20103;-68
2022/01/13 13:01:08;;;;;;;40.22;19.75;;;7.70;99.90;;;;;;5059212;28;20120;-69
2022/01/13 13:03:36;;;;;;;34.47;19.08;;;7.80;99.90;;;;;;5061351;28;20044;-68
2022/01/13 13:06:14;;;;;;;34.50;18.88;;;7.80;99.90;;;;;;5066624;28;20401;-68
2022/01/13 13:08:46;;;;;;;30.38;18.55;;;7.80;99.90;;;;;;5058233;28;20487;-68
2022/01/13 13:11:12;;;;;;;38.13;19.95;;;7.80;99.90;;;;;;5060407;28;20519;-69